ADDS METAR Data INFO
IDs: Format: Raw Decoded Include TAF

Data at: 1250 UTC 19 Oct 2017

K08D 191235Z AUTO 00000KT 10SM CLR 04/M01 A2975 RMK AO2
K08D 191215Z AUTO 00000KT 10SM CLR 05/M00 A2975 RMK AO2
K08D 191155Z AUTO 18005KT 10SM CLR 05/M00 A2975 RMK AO2
K08D 191135Z AUTO 21004KT 10SM CLR 05/M00 A2975 RMK AO2
K08D 191115Z AUTO 20007KT 10SM CLR 05/M01 A2975 RMK AO2
K08D 191055Z AUTO 19006KT 10SM CLR 05/M01 A2976 RMK AO2
K08D 191035Z AUTO 18005KT 10SM CLR 05/M01 A2977 RMK AO2
K08D 191015Z AUTO 19005KT 10SM CLR 05/M01 A2977 RMK AO2
K08D 190955Z AUTO 17008KT 10SM CLR 05/M01 A2977 RMK AO2
K08D 190935Z AUTO 17007KT 10SM CLR 05/M02 A2978 RMK AO2
K08D 190915Z AUTO 16007KT 10SM CLR 06/M02 A2979 RMK AO2
K08D 190855Z AUTO 17004KT 10SM CLR 06/M01 A2979 RMK AO2
K08D 190835Z AUTO 17007G12KT 10SM CLR 06/M01 A2980 RMK AO2
K08D 190815Z AUTO 18004KT 10SM CLR 04/01 A2981 RMK AO2
K08D 190755Z AUTO 18007KT 10SM CLR 05/00 A2982 RMK AO2
K08D 190735Z AUTO 17005KT 10SM CLR 05/M01 A2982 RMK AO2
K08D 190715Z AUTO 19005KT 10SM CLR 04/M01 A2983 RMK AO2
K08D 190655Z AUTO 20006KT 10SM CLR 02/M02 A2984 RMK AO2
K08D 190635Z AUTO 00000KT 10SM CLR 02/M03 A2984 RMK AO2
K08D 190615Z AUTO 21004KT 10SM CLR 02/M04 A2985 RMK AO2
K08D 190555Z AUTO 22005KT 10SM CLR 02/M04 A2986 RMK AO2
K08D 190535Z AUTO 20003KT 10SM CLR 02/M05 A2987 RMK AO2
K08D 190515Z AUTO 00000KT 10SM CLR 02/M04 A2987 RMK AO2
K08D 190455Z AUTO 00000KT 10SM CLR 01/M04 A2988 RMK AO2
K08D 190435Z AUTO 21005KT 10SM CLR 01/M04 A2988 RMK AO2
K08D 190415Z AUTO 21006KT 10SM CLR 02/M04 A2989 RMK AO2
K08D 190355Z AUTO 22004KT 10SM CLR 02/M05 A2989 RMK AO2
K08D 190335Z AUTO 22005KT 10SM CLR 02/M05 A2990 RMK AO2
K08D 190315Z AUTO 22005KT 10SM CLR 02/M05 A2990 RMK AO2
K08D 190255Z AUTO 22005KT 10SM CLR 03/M05 A2991 RMK AO2
K08D 190235Z AUTO 21005KT 10SM CLR 03/M05 A2991 RMK AO2
K08D 190215Z AUTO 20007KT 10SM CLR 03/M05 A2991 RMK AO2
K08D 190155Z AUTO 21005KT 10SM CLR 03/M06 A2992 RMK AO2
K08D 190135Z AUTO 21004KT 10SM CLR 03/M05 A2992 RMK AO2
K08D 190115Z AUTO 19003KT 10SM CLR 03/M06 A2992 RMK AO2
K08D 190055Z AUTO 25005KT 10SM CLR 04/M06 A2992 RMK AO2
K08D 190035Z AUTO 26007KT 10SM CLR 05/M06 A2992 RMK AO2
K08D 190015Z AUTO 27007KT 10SM CLR 06/M05 A2992 RMK AO2
K08D 182355Z AUTO 26007KT 10SM CLR 07/M05 A2992 RMK AO2
K08D 182335Z AUTO 28009G15KT 10SM CLR 09/M06 A2991 RMK AO2
K08D 182315Z AUTO 26014G20KT 10SM CLR 10/M06 A2991 RMK AO2
K08D 182255Z AUTO 26014G23KT 10SM CLR 11/M06 A2992 RMK AO2
K08D 182235Z AUTO 28016G26KT 10SM CLR 11/M06 A2992 RMK AO2
K08D 182215Z AUTO 28016G23KT 10SM CLR 11/M06 A2992 RMK AO2
K08D 182155Z AUTO 27016G26KT 10SM CLR 11/M06 A2992 RMK AO2
K08D 182135Z AUTO 27020G26KT 10SM CLR 12/M06 A2992 RMK AO2
K08D 182115Z AUTO 26020G28KT 10SM CLR 12/M06 A2992 RMK AO2
K08D 182055Z AUTO 27023G30KT 10SM CLR 12/M07 A2992 RMK AO2
K08D 182035Z AUTO 26022G30KT 10SM CLR 12/M07 A2992 RMK AO2
K08D 182015Z AUTO 28020G28KT 10SM CLR 12/M07 A2992 RMK AO2
K08D 181955Z AUTO 29019G28KT 10SM CLR 12/M08 A2992 RMK AO2
K08D 181935Z AUTO 28021G31KT 10SM CLR 12/M08 A2993 RMK AO2
K08D 181915Z AUTO 28020G32KT 10SM CLR 11/M08 A2993 RMK AO2
K08D 181855Z AUTO 28019G27KT 10SM CLR 11/M07 A2993 RMK AO2
K08D 181835Z AUTO 28024G32KT 10SM CLR 11/M07 A2994 RMK AO2
K08D 181815Z AUTO 29021G32KT 10SM CLR 11/M07 A2993 RMK AO2
K08D 181755Z AUTO 27022G31KT 10SM CLR 11/M07 A2993 RMK AO2
K08D 181735Z AUTO 29023G34KT 10SM CLR 10/M07 A2992 RMK AO2
K08D 181715Z AUTO 28022G33KT 10SM CLR 10/M07 A2993 RMK AO2
K08D 181655Z AUTO 29020G33KT 10SM CLR 10/M08 A2993 RMK AO2
K08D 181635Z AUTO 29023G33KT 10SM CLR 09/M08 A2991 RMK AO2
K08D 181615Z AUTO 29024G35KT 10SM CLR 09/M08 A2991 RMK AO2
K08D 181555Z AUTO 29025G35KT 10SM CLR 09/M08 A2990 RMK AO2
K08D 181535Z AUTO 10SM CLR 08/M08 A2989 RMK AO2
K08D 181515Z AUTO 28019G32KT 10SM CLR 08/M07 A2989 RMK AO2
K08D 181455Z AUTO 28020G29KT 10SM CLR 07/M07 A2989 RMK AO2
K08D 181435Z AUTO 28016G25KT 10SM CLR 06/M07 A2988 RMK AO2
K08D 181415Z AUTO 28014G26KT 10SM CLR 06/M07 A2987 RMK AO2
K08D 181355Z AUTO 28018G24KT 10SM CLR 05/M07 A2986 RMK AO2
K08D 181335Z AUTO 29015G25KT 10SM CLR 05/M06 A2985 RMK AO2
K08D 181315Z AUTO 29017G24KT 10SM CLR 05/M05 A2984 RMK AO2
K08D 181255Z AUTO 29017G25KT 10SM CLR 05/M05 A2983 RMK AO2
K08D 181235Z AUTO 29019G26KT 10SM CLR 06/M04 A2983 RMK AO2
K08D 181215Z AUTO 29017G27KT 10SM CLR 06/M04 A2982 RMK AO2
K08D 181155Z AUTO 29018G27KT 10SM CLR 06/M03 A2981 RMK AO2
K08D 181135Z AUTO 29019G27KT 10SM CLR 07/M02 A2980 RMK AO2
K08D 181115Z AUTO 29018G31KT 10SM CLR 07/M01 A2979 RMK AO2
K08D 181055Z AUTO 30021G31KT 10SM CLR 08/M00 A2978 RMK AO2
K08D 181035Z AUTO 29018G33KT 10SM CLR 08/00 A2975 RMK AO2
K08D 181015Z AUTO 29025G35KT 10SM CLR 08/01 A2974 RMK AO2
K08D 180955Z AUTO 30022G36KT 10SM CLR 09/01 A2972 RMK AO2
K08D 180935Z AUTO 29025G32KT 10SM FEW055 09/02 A2971 RMK AO2
K08D 180915Z AUTO 29018G27KT 10SM BKN055 10/01 A2969 RMK AO2
K08D 180855Z AUTO 29014G28KT 10SM SCT050 11/01 A2968 RMK AO2
K08D 180835Z AUTO 30019G30KT 10SM SCT048 12/01 A2967 RMK AO2
K08D 180815Z AUTO 30027G38KT 10SM SCT037 BKN044 BKN050 13/M00 A2965 RMK AO2
K08D 180755Z AUTO 30027G39KT 10SM SCT036 BKN043 BKN050 13/M01 A2963 RMK AO2
K08D 180735Z AUTO 30018G26KT 10SM FEW032 FEW041 FEW055 14/01 A2962 RMK AO2
K08D 180715Z AUTO 31028G47KT 8SM FEW029 SCT037 SCT046 16/00 A2961 RMK AO2
K08D 180655Z AUTO 26022G28KT 10SM SCT037 BKN045 18/M04 A2956 RMK AO2
K08D 180635Z AUTO 26019G28KT 10SM CLR 18/M04 A2956 RMK AO2
K08D 180615Z AUTO 24021KT 10SM CLR 18/M04 A2954 RMK AO2
K08D 180555Z AUTO 23018G25KT 10SM CLR 18/M04 A2953 RMK AO2
K08D 180535Z AUTO 23019KT 10SM CLR 18/M05 A2952 RMK AO2
K08D 180515Z AUTO 23014KT 10SM CLR 16/M04 A2952 RMK AO2
K08D 180455Z AUTO 22014KT 10SM CLR 17/M04 A2951 RMK AO2
K08D 180435Z AUTO 22014KT 10SM CLR 17/M04 A2951 RMK AO2
K08D 180415Z AUTO 21009KT 10SM CLR 14/M03 A2952 RMK AO2
K08D 180355Z AUTO 21007KT 10SM CLR 13/M03 A2953 RMK AO2
K08D 180335Z AUTO 22004KT 10SM CLR 12/M03 A2954 RMK AO2
K08D 180315Z AUTO 21006KT 10SM CLR 12/M03 A2954 RMK AO2
K08D 180255Z AUTO 00000KT 10SM CLR 13/M03 A2955 RMK AO2
K08D 180235Z AUTO 20006KT 10SM CLR 13/M03 A2956 RMK AO2
K08D 180215Z AUTO 21010KT 10SM CLR 15/M03 A2957 RMK AO2
K08D 180155Z AUTO 21012KT 10SM CLR 15/M03 A2958 RMK AO2
K08D 180135Z AUTO 21013KT 10SM FEW033 15/M03 A2958 RMK AO2
K08D 180115Z AUTO 20010KT 10SM CLR 13/M03 A2960 RMK AO2
K08D 180055Z AUTO 21009KT 10SM CLR 13/M03 A2960 RMK AO2